Time;durP1;ratioP1;P1;durP2;ratioP2;P2;SDS_P1;SDS_P2;PMS_P1;PMS_P2;Temp;Humidity;BMP_temperature;BMP_pressure;BME280_temperature;BME280_humidity;BME280_pressure;Samples;Min_cycle;Max_cycle;Signal;HPM_P1;HPM_P2
2022/01/26 00:00:05;;;;;;;54.17;33.72;;;2.30;99.90;;;;;;5017358;28;20199;-90
2022/01/26 00:08:00;;;;;;;81.90;42.38;;;2.30;99.90;;;;;;5016357;28;20257;-88
2022/01/26 00:10:25;;;;;;;59.03;34.28;;;2.40;99.90;;;;;;5015478;28;20253;-90
2022/01/26 00:12:51;;;;;;;54.63;32.57;;;2.40;99.90;;;;;;5015613;28;20650;-88
2022/01/26 00:15:17;;;;;;;61.53;32.50;;;2.40;99.90;;;;;;5016633;28;20613;-89
2022/01/26 00:17:43;;;;;;;54.40;32.50;;;2.40;99.90;;;;;;5015050;28;20175;-89
2022/01/26 00:20:27;;;;;;;46.97;31.03;;;2.40;99.90;;;;;;5015366;28;20302;-89
2022/01/26 00:23:00;;;;;;;52.25;32.13;;;2.40;99.90;;;;;;5014859;28;20380;-90
2022/01/26 00:28:20;;;;;;;72.47;39.17;;;2.50;99.90;;;;;;5016398;28;20160;-88
2022/01/26 00:38:52;;;;;;;75.65;39.60;;;2.50;99.90;;;;;;5016424;28;20170;-87
2022/01/26 00:41:31;;;;;;;82.07;41.37;;;2.50;99.90;;;;;;5019559;28;20195;-90
2022/01/26 00:43:58;;;;;;;72.22;38.65;;;2.50;99.90;;;;;;5014258;28;20471;-88
2022/01/26 00:46:24;;;;;;;58.80;33.92;;;2.50;99.90;;;;;;5014710;28;20754;-89
2022/01/26 00:48:50;;;;;;;63.08;37.30;;;2.50;99.90;;;;;;5015745;28;20202;-90
2022/01/26 00:51:19;;;;;;;66.80;36.63;;;2.50;99.90;;;;;;5014619;28;20199;-88
2022/01/26 00:53:53;;;;;;;58.63;34.05;;;2.50;99.90;;;;;;5014576;28;20176;-88
2022/01/26 00:56:19;;;;;;;62.70;35.50;;;2.50;99.90;;;;;;5015941;28;20203;-88
2022/01/26 00:58:45;;;;;;;59.90;34.50;;;2.40;99.90;;;;;;5027143;28;20172;-88
2022/01/26 01:01:11;;;;;;;55.63;32.97;;;2.40;99.90;;;;;;5026833;28;20214;-90
2022/01/26 01:03:41;;;;;;;63.13;34.60;;;2.40;99.90;;;;;;5014520;28;20175;-89
2022/01/26 01:06:32;;;;;;;54.47;31.58;;;2.40;99.90;;;;;;5014326;28;20266;-90
2022/01/26 01:08:58;;;;;;;53.25;30.90;;;2.40;99.90;;;;;;5014288;28;20239;-88
2022/01/26 01:11:26;;;;;;;52.22;30.60;;;2.40;99.90;;;;;;5013988;28;20253;-88
2022/01/26 01:13:52;;;;;;;57.08;31.83;;;2.40;99.90;;;;;;5015295;28;20535;-89
2022/01/26 01:16:21;;;;;;;51.88;31.35;;;2.40;99.90;;;;;;5014126;28;20199;-89
2022/01/26 01:18:59;;;;;;;56.22;32.40;;;2.40;99.90;;;;;;5013956;28;20286;-89
2022/01/26 01:34:10;;;;;;;55.30;34.78;;;2.40;99.90;;;;;;5019877;28;20273;-90
2022/01/26 01:36:39;;;;;;;49.75;31.65;;;2.40;99.90;;;;;;5013995;28;20210;-88
2022/01/26 01:39:10;;;;;;;55.42;33.40;;;2.40;99.90;;;;;;5019768;28;20730;-89
2022/01/26 01:41:37;;;;;;;61.20;33.42;;;2.40;99.90;;;;;;5031950;28;20199;-89
2022/01/26 01:44:04;;;;;;;59.90;32.75;;;2.40;99.90;;;;;;5023195;28;20217;-89
2022/01/26 01:46:30;;;;;;;55.20;32.15;;;2.50;99.90;;;;;;5028852;28;20677;-89
2022/01/26 01:48:56;;;;;;;54.75;31.13;;;2.50;99.90;;;;;;5013371;28;20678;-88
2022/01/26 01:51:28;;;;;;;53.67;32.50;;;2.50;99.90;;;;;;5014601;28;20198;-88
2022/01/26 01:53:54;;;;;;;54.10;31.63;;;2.50;99.90;;;;;;5013541;28;20715;-88
2022/01/26 01:56:23;;;;;;;56.77;33.20;;;2.50;99.90;;;;;;5012335;28;20214;-88
2022/01/26 01:58:49;;;;;;;56.05;31.05;;;2.50;99.90;;;;;;5023676;28;20477;-89
2022/01/26 02:01:15;;;;;;;52.70;32.10;;;2.50;99.90;;;;;;5015031;28;20211;-88
2022/01/26 02:03:41;;;;;;;56.42;32.70;;;2.50;99.90;;;;;;5013577;28;20179;-88
2022/01/26 02:06:07;;;;;;;61.85;33.20;;;2.50;99.90;;;;;;5015370;28;20254;-89
2022/01/26 02:08:33;;;;;;;58.60;34.10;;;2.50;99.90;;;;;;5013069;28;20235;-88
2022/01/26 02:10:59;;;;;;;53.45;31.23;;;2.50;99.90;;;;;;5013476;28;20498;-88
2022/01/26 02:13:32;;;;;;;54.25;32.67;;;2.50;99.90;;;;;;5013101;28;20179;-88
2022/01/26 02:16:12;;;;;;;56.83;31.95;;;2.50;99.90;;;;;;5013444;28;20656;-88
2022/01/26 02:19:00;;;;;;;57.65;34.33;;;2.50;99.90;;;;;;5013229;28;20202;-89
2022/01/26 02:21:57;;;;;;;58.97;32.78;;;2.50;99.90;;;;;;5014294;28;20206;-90
2022/01/26 02:56:54;;;;;;;56.50;32.28;;;2.60;99.90;;;;;;5018372;28;20201;-89
2022/01/26 03:02:10;;;;;;;64.00;33.88;;;2.60;99.90;;;;;;5014797;28;20257;-89
2022/01/26 03:04:46;;;;;;;60.05;32.08;;;2.60;99.90;;;;;;5012964;28;20207;-89
2022/01/26 03:07:20;;;;;;;60.70;32.83;;;2.60;99.90;;;;;;5014533;28;20207;-89
2022/01/26 03:09:53;;;;;;;54.05;32.88;;;2.60;99.90;;;;;;5016167;28;20234;-89
2022/01/26 03:12:29;;;;;;;57.33;33.15;;;2.60;99.90;;;;;;5016621;28;20197;-88
2022/01/26 03:14:59;;;;;;;55.20;31.75;;;2.60;99.90;;;;;;5016433;28;20222;-88
2022/01/26 03:20:03;;;;;;;58.50;30.45;;;2.60;99.90;;;;;;5017833;28;20330;-88
2022/01/26 03:36:11;;;;;;;56.00;32.85;;;2.70;99.90;;;;;;5017551;28;20357;-88
2022/01/26 03:38:43;;;;;;;63.75;34.70;;;2.70;99.90;;;;;;5017095;28;20194;-89
2022/01/26 03:43:41;;;;;;;60.05;32.58;;;2.70;99.90;;;;;;5017373;28;20182;-89
2022/01/26 03:46:07;;;;;;;61.17;32.97;;;2.70;99.90;;;;;;5015904;28;20230;-89
2022/01/26 03:48:33;;;;;;;53.30;32.33;;;2.80;99.90;;;;;;5022355;28;20179;-88
2022/01/26 03:51:00;;;;;;;53.70;30.00;;;2.80;99.90;;;;;;5017474;28;20274;-88
2022/01/26 03:53:26;;;;;;;58.85;32.80;;;2.70;99.90;;;;;;5015665;28;20424;-89
2022/01/26 03:55:51;;;;;;;57.57;32.17;;;2.80;99.90;;;;;;5016959;28;20195;-90
2022/01/26 03:58:17;;;;;;;64.20;33.90;;;2.80;99.90;;;;;;5015687;28;20176;-90
2022/01/26 04:00:43;;;;;;;50.00;30.03;;;2.80;99.90;;;;;;5015150;28;20210;-88
2022/01/26 04:03:11;;;;;;;59.85;31.05;;;2.80;99.90;;;;;;5015786;28;20817;-90
2022/01/26 04:05:36;;;;;;;59.38;30.95;;;2.80;99.90;;;;;;5020857;28;20241;-89
2022/01/26 04:08:09;;;;;;;57.77;31.20;;;2.80;99.90;;;;;;5024295;28;20227;-90
2022/01/26 04:13:01;;;;;;;57.70;34.97;;;2.80;99.90;;;;;;5016716;28;20175;-88
2022/01/26 04:15:30;;;;;;;52.47;31.73;;;2.80;99.90;;;;;;5015248;28;20427;-88
2022/01/26 04:17:57;;;;;;;54.65;32.10;;;2.80;99.90;;;;;;5015174;28;20556;-88
2022/01/26 04:20:27;;;;;;;54.88;31.77;;;2.80;99.90;;;;;;5014500;28;20218;-90
2022/01/26 04:23:08;;;;;;;57.40;31.65;;;2.80;99.90;;;;;;5015244;28;20611;-90
2022/01/26 04:25:35;;;;;;;58.08;32.22;;;2.80;99.90;;;;;;5015247;28;20250;-88
2022/01/26 04:28:06;;;;;;;56.47;32.47;;;2.80;99.90;;;;;;5015244;28;20553;-89
2022/01/26 04:30:31;;;;;;;55.25;30.58;;;2.80;99.90;;;;;;5014912;28;20211;-89
2022/01/26 04:33:03;;;;;;;60.13;32.17;;;2.80;99.90;;;;;;5015329;28;20582;-86
2022/01/26 04:35:29;;;;;;;61.80;33.78;;;2.80;99.90;;;;;;5015953;28;20459;-90
2022/01/26 04:40:36;;;;;;;52.05;30.15;;;2.80;99.90;;;;;;5019511;28;21017;-90
2022/01/26 04:43:06;;;;;;;63.22;31.17;;;2.80;99.90;;;;;;5021080;28;20183;-90
2022/01/26 04:45:32;;;;;;;57.75;31.88;;;2.90;99.90;;;;;;5030298;28;20207;-88
2022/01/26 04:47:58;;;;;;;57.23;31.03;;;2.90;99.90;;;;;;5026230;28;20194;-89
2022/01/26 04:50:23;;;;;;;62.53;32.00;;;2.90;99.90;;;;;;5014873;28;20665;-90
2022/01/26 04:52:49;;;;;;;54.03;29.80;;;2.90;99.90;;;;;;5016115;28;20167;-88
2022/01/26 04:55:15;;;;;;;65.73;32.80;;;2.90;99.90;;;;;;5014853;28;20218;-89
2022/01/26 04:57:41;;;;;;;57.53;33.33;;;2.90;99.90;;;;;;5015686;28;20175;-88
2022/01/26 05:00:08;;;;;;;65.17;32.70;;;2.90;99.90;;;;;;5014428;28;20999;-88
2022/01/26 05:02:34;;;;;;;57.00;31.40;;;2.90;99.90;;;;;;5014486;28;20182;-89
2022/01/26 05:05:00;;;;;;;57.88;31.50;;;2.90;99.90;;;;;;5015462;28;20206;-90
2022/01/26 05:07:25;;;;;;;62.77;33.63;;;2.90;99.90;;;;;;5014255;28;20379;-89
2022/01/26 05:09:51;;;;;;;59.53;31.47;;;2.90;99.90;;;;;;5013733;28;20238;-89
2022/01/26 05:12:18;;;;;;;66.30;33.53;;;2.90;99.90;;;;;;5014737;28;20658;-88
2022/01/26 05:14:45;;;;;;;58.05;32.50;;;2.90;99.90;;;;;;5014374;28;20206;-88
2022/01/26 05:17:13;;;;;;;58.20;31.55;;;2.90;99.90;;;;;;5014251;28;20175;-87
2022/01/26 05:19:38;;;;;;;67.40;34.28;;;2.90;99.90;;;;;;5014352;28;20264;-89
2022/01/26 05:22:04;;;;;;;56.50;31.97;;;2.90;99.90;;;;;;5014127;28;20614;-87
2022/01/26 05:24:30;;;;;;;98.30;44.05;;;2.90;99.90;;;;;;5013951;28;20440;-88
2022/01/26 05:26:56;;;;;;;182.90;64.50;;;2.90;99.90;;;;;;5015251;28;20206;-89
2022/01/26 05:29:22;;;;;;;242.63;83.70;;;2.90;99.90;;;;;;5015617;28;20195;-88
2022/01/26 05:31:48;;;;;;;195.43;68.55;;;2.90;99.90;;;;;;5013755;28;20171;-90
2022/01/26 05:34:14;;;;;;;164.80;63.15;;;2.90;99.90;;;;;;5014573;28;20183;-89
2022/01/26 05:36:40;;;;;;;206.40;72.57;;;2.90;99.90;;;;;;5014721;28;20723;-89
2022/01/26 05:39:05;;;;;;;191.80;71.37;;;2.80;99.90;;;;;;5013940;28;20179;-88
2022/01/26 05:41:31;;;;;;;148.40;60.60;;;2.80;99.90;;;;;;5012988;28;20290;-90
2022/01/26 05:44:00;;;;;;;85.97;39.33;;;2.80;99.90;;;;;;5013259;28;20402;-89
2022/01/26 05:46:34;;;;;;;76.00;37.10;;;2.80;99.90;;;;;;5007559;28;20242;-88
2022/01/26 05:48:59;;;;;;;67.88;35.00;;;2.80;99.90;;;;;;4999017;28;20191;-90
2022/01/26 05:51:27;;;;;;;64.93;33.73;;;2.80;99.90;;;;;;5033987;28;20196;-89
2022/01/26 05:53:53;;;;;;;64.72;33.13;;;2.80;99.90;;;;;;5033802;28;20218;-88
2022/01/26 05:56:18;;;;;;;69.13;34.53;;;2.90;99.90;;;;;;5020128;28;20200;-90
2022/01/26 05:58:44;;;;;;;60.43;32.37;;;2.80;99.90;;;;;;5010060;28;20422;-88
2022/01/26 06:01:11;;;;;;;70.13;31.77;;;2.90;99.90;;;;;;5008064;28;20203;-88
2022/01/26 06:03:37;;;;;;;71.63;36.38;;;2.90;99.90;;;;;;5013449;28;20478;-90
2022/01/26 06:06:03;;;;;;;63.30;33.43;;;2.90;99.90;;;;;;5013018;28;20219;-90
2022/01/26 06:08:29;;;;;;;73.25;34.95;;;2.90;99.90;;;;;;5017192;28;20313;-88
2022/01/26 06:10:55;;;;;;;63.10;33.07;;;2.90;99.90;;;;;;5013080;28;20711;-88
2022/01/26 06:13:21;;;;;;;75.68;36.92;;;2.90;99.90;;;;;;5013327;28;20541;-88
2022/01/26 06:15:47;;;;;;;62.10;35.93;;;2.90;99.90;;;;;;5013520;28;20199;-88
2022/01/26 06:18:13;;;;;;;73.97;37.42;;;2.90;99.90;;;;;;5014507;28;20400;-90
2022/01/26 06:20:40;;;;;;;65.28;32.75;;;2.90;99.90;;;;;;5012178;28;20223;-89
2022/01/26 06:23:06;;;;;;;63.88;33.10;;;2.90;99.90;;;;;;5013912;28;20273;-90
2022/01/26 06:25:32;;;;;;;70.47;33.35;;;2.90;99.90;;;;;;5001882;28;20210;-88
2022/01/26 06:28:00;;;;;;;60.88;35.05;;;2.90;99.90;;;;;;4998762;28;20215;-89
2022/01/26 06:30:26;;;;;;;60.03;32.88;;;2.90;99.90;;;;;;4992128;28;20212;-89
2022/01/26 06:32:53;;;;;;;66.18;34.30;;;2.90;99.90;;;;;;4998833;28;20246;-89
2022/01/26 06:35:19;;;;;;;56.63;32.42;;;2.90;99.90;;;;;;5011446;28;20207;-88
2022/01/26 06:37:45;;;;;;;71.97;35.73;;;2.90;99.90;;;;;;5011822;28;20221;-87
2022/01/26 06:40:12;;;;;;;74.97;41.58;;;2.90;99.90;;;;;;5011897;28;20862;-87
2022/01/26 06:42:52;;;;;;;77.93;42.90;;;2.90;99.90;;;;;;5013264;28;20183;-87
2022/01/26 06:45:24;;;;;;;85.88;43.90;;;2.90;99.90;;;;;;5014834;28;20726;-87
2022/01/26 06:50:16;;;;;;;65.03;34.83;;;3.00;99.90;;;;;;5016959;28;20746;-88
2022/01/26 06:52:43;;;;;;;71.25;37.00;;;3.00;99.90;;;;;;5020066;28;20266;-87
2022/01/26 06:55:10;;;;;;;73.18;41.03;;;3.00;99.90;;;;;;5013946;28;20203;-87
2022/01/26 06:57:35;;;;;;;68.25;37.22;;;3.00;99.90;;;;;;5014125;28;20182;-90
2022/01/26 07:00:01;;;;;;;73.17;36.23;;;3.00;99.90;;;;;;5017224;28;20563;-90
2022/01/26 07:02:27;;;;;;;65.83;34.20;;;3.00;99.90;;;;;;5016338;28;20202;-88
2022/01/26 07:04:52;;;;;;;61.33;32.93;;;3.10;99.90;;;;;;5015875;28;20575;-90
2022/01/26 07:07:18;;;;;;;66.23;31.97;;;3.10;99.90;;;;;;5014247;28;20298;-90
2022/01/26 07:09:44;;;;;;;70.70;36.60;;;3.10;99.90;;;;;;5015226;28;20238;-90
2022/01/26 07:12:10;;;;;;;54.20;29.17;;;3.10;99.90;;;;;;5025243;28;20239;-90
2022/01/26 07:22:35;;;;;;;56.90;30.58;;;3.10;99.90;;;;;;5011918;28;20640;-90
2022/01/26 07:25:01;;;;;;;58.50;30.90;;;3.10;99.90;;;;;;5013967;28;20203;-89
2022/01/26 07:27:27;;;;;;;57.20;30.33;;;3.20;99.90;;;;;;5013914;28;20211;-87
2022/01/26 07:29:56;;;;;;;49.80;26.67;;;3.20;99.90;;;;;;5016771;28;20241;-87
2022/01/26 07:32:24;;;;;;;47.08;26.15;;;3.20;99.90;;;;;;5028959;28;20175;-89
2022/01/26 07:34:49;;;;;;;49.63;24.70;;;3.20;99.90;;;;;;5027264;28;20233;-87
2022/01/26 07:37:17;;;;;;;47.83;28.50;;;3.30;99.90;;;;;;5015987;28;20724;-87
2022/01/26 07:40:00;;;;;;;50.97;25.35;;;3.30;99.90;;;;;;5010678;28;20222;-87
2022/01/26 07:42:25;;;;;;;51.22;28.00;;;3.30;99.90;;;;;;5007723;28;20195;-86
2022/01/26 07:44:51;;;;;;;51.73;30.33;;;3.40;99.90;;;;;;5002977;28;20207;-90
2022/01/26 07:47:17;;;;;;;45.17;25.40;;;3.40;99.90;;;;;;5015006;28;20265;-86
2022/01/26 07:49:43;;;;;;;50.20;27.10;;;3.40;99.90;;;;;;5005213;28;20537;-86
2022/01/26 07:52:09;;;;;;;48.83;25.70;;;3.40;99.90;;;;;;5003997;28;20190;-90
2022/01/26 07:54:35;;;;;;;48.30;25.93;;;3.40;99.90;;;;;;5008638;28;20434;-89
2022/01/26 07:57:01;;;;;;;49.97;25.20;;;3.50;99.90;;;;;;5004027;28;20427;-89
2022/01/26 07:59:27;;;;;;;44.00;26.20;;;3.50;99.90;;;;;;5008473;28;20415;-86
2022/01/26 08:01:53;;;;;;;52.05;27.95;;;3.50;99.90;;;;;;5004376;28;20199;-86
2022/01/26 08:04:19;;;;;;;45.43;24.40;;;3.50;99.90;;;;;;4998385;28;20282;-87
2022/01/26 08:06:45;;;;;;;47.57;23.33;;;3.50;99.90;;;;;;5011123;28;20563;-86
2022/01/26 08:09:11;;;;;;;48.90;27.00;;;3.60;99.90;;;;;;5010289;28;20589;-87
2022/01/26 08:11:37;;;;;;;44.45;24.42;;;3.60;99.90;;;;;;5010593;28;20195;-89
2022/01/26 08:14:03;;;;;;;47.80;25.10;;;3.60;99.90;;;;;;5011272;28;20218;-87
2022/01/26 08:16:29;;;;;;;59.17;27.73;;;3.70;99.90;;;;;;5010943;28;20674;-90
2022/01/26 08:18:55;;;;;;;45.37;23.37;;;3.70;99.90;;;;;;5014864;28;20254;-87
2022/01/26 08:21:21;;;;;;;40.20;25.23;;;3.70;99.90;;;;;;5013706;28;20290;-89
2022/01/26 08:23:48;;;;;;;48.47;23.40;;;3.70;99.90;;;;;;5005729;28;20256;-88
2022/01/26 08:26:20;;;;;;;40.92;22.95;;;3.70;99.90;;;;;;5013075;28;21056;-87
2022/01/26 08:28:51;;;;;;;46.33;25.60;;;3.70;99.90;;;;;;5005855;28;20224;-90
2022/01/26 08:31:17;;;;;;;47.33;25.40;;;3.80;99.90;;;;;;5007289;28;20214;-86
2022/01/26 08:33:43;;;;;;;40.57;23.50;;;3.80;99.90;;;;;;5009556;28;20183;-87
2022/01/26 08:36:12;;;;;;;50.93;27.27;;;3.80;99.90;;;;;;5016371;28;20820;-87
2022/01/26 08:38:37;;;;;;;43.25;24.10;;;3.80;99.90;;;;;;5008805;28;20633;-89
2022/01/26 08:41:03;;;;;;;45.40;23.33;;;3.80;99.90;;;;;;5012252;28;20222;-88
2022/01/26 08:43:29;;;;;;;50.37;25.03;;;3.80;99.90;;;;;;5013729;28;20179;-86
2022/01/26 08:45:55;;;;;;;46.57;24.13;;;3.90;99.90;;;;;;5024067;28;20453;-90
2022/01/26 08:48:22;;;;;;;47.03;24.80;;;3.90;99.90;;;;;;5029100;28;20640;-90
2022/01/26 08:50:47;;;;;;;44.33;23.88;;;3.90;99.90;;;;;;5017499;28;20203;-89
2022/01/26 08:53:13;;;;;;;44.03;22.63;;;3.90;99.90;;;;;;5013968;28;20590;-86
2022/01/26 08:55:39;;;;;;;52.13;24.77;;;4.00;99.90;;;;;;5013424;28;20452;-89
2022/01/26 08:58:05;;;;;;;54.70;27.27;;;4.00;99.90;;;;;;5009829;28;20437;-90
2022/01/26 09:00:31;;;;;;;45.50;25.15;;;4.00;99.90;;;;;;5013746;28;20206;-90
2022/01/26 09:02:57;;;;;;;48.07;25.13;;;4.10;99.90;;;;;;5011266;28;20266;-88
2022/01/26 09:05:23;;;;;;;42.60;24.45;;;4.10;99.90;;;;;;5018698;28;20426;-89
2022/01/26 09:07:50;;;;;;;42.45;24.25;;;4.20;99.90;;;;;;5013759;28;20226;-87
2022/01/26 09:10:16;;;;;;;39.30;22.30;;;4.20;99.90;;;;;;5009526;28;20207;-90
2022/01/26 09:12:44;;;;;;;38.67;22.43;;;4.30;99.90;;;;;;5012634;28;20187;-90
2022/01/26 09:15:12;;;;;;;41.63;22.52;;;4.30;99.90;;;;;;5006558;28;20215;-87
2022/01/26 09:17:39;;;;;;;39.38;21.77;;;4.30;99.90;;;;;;5003620;28;20187;-87
2022/01/26 09:20:06;;;;;;;40.00;21.85;;;4.40;99.90;;;;;;5015235;28;20194;-87
2022/01/26 09:22:32;;;;;;;38.55;20.40;;;4.50;99.90;;;;;;5017890;28;20194;-86
2022/01/26 09:24:58;;;;;;;37.70;21.70;;;4.50;99.90;;;;;;5010359;28;20578;-89
2022/01/26 09:27:24;;;;;;;35.30;21.00;;;4.60;99.90;;;;;;5004694;28;20219;-86
2022/01/26 09:29:50;;;;;;;37.67;20.95;;;4.70;99.90;;;;;;5009845;28;20617;-86
2022/01/26 09:32:16;;;;;;;38.70;22.60;;;4.80;99.90;;;;;;4990514;28;20333;-86
2022/01/26 09:34:43;;;;;;;41.10;20.95;;;4.80;99.90;;;;;;4990077;28;20468;-86
2022/01/26 09:37:12;;;;;;;38.30;19.83;;;4.90;99.90;;;;;;4997092;28;20187;-89
2022/01/26 09:39:41;;;;;;;34.40;20.13;;;5.00;99.90;;;;;;5001337;28;20616;-89
2022/01/26 09:42:07;;;;;;;38.20;22.58;;;5.00;99.90;;;;;;5002453;28;20198;-90
2022/01/26 09:44:33;;;;;;;39.05;23.33;;;5.10;99.90;;;;;;5013790;28;20195;-90
2022/01/26 09:46:59;;;;;;;33.38;18.75;;;5.10;99.90;;;;;;5013005;28;20219;-88
2022/01/26 09:49:32;;;;;;;35.40;20.10;;;5.10;99.90;;;;;;5032978;28;20501;-89
2022/01/26 09:52:31;;;;;;;36.05;20.42;;;5.20;99.90;;;;;;5022592;28;20387;-89
2022/01/26 09:54:59;;;;;;;33.85;19.90;;;5.20;99.90;;;;;;5017147;28;20298;-86
2022/01/26 09:57:26;;;;;;;38.55;23.00;;;5.20;99.90;;;;;;5012764;28;20518;-87
2022/01/26 09:59:51;;;;;;;44.50;26.13;;;5.30;99.90;;;;;;5003820;28;20207;-89
2022/01/26 10:02:26;;;;;;;33.73;19.33;;;5.30;99.90;;;;;;5012296;28;20592;-87
2022/01/26 10:05:02;;;;;;;35.33;20.48;;;5.30;99.90;;;;;;5011386;28;20302;-87
2022/01/26 10:17:18;;;;;;;40.20;21.90;;;5.40;99.90;;;;;;4956846;28;20216;-90
2022/01/26 10:18:55;;;;;;;28.52;16.95;;;5.50;99.90;;;;;;5004325;28;20298;-89
2022/01/26 10:21:21;;;;;;;26.50;16.40;;;5.50;99.90;;;;;;5017491;28;20207;-87
2022/01/26 10:23:47;;;;;;;34.67;20.50;;;5.50;99.90;;;;;;5023932;28;20201;-89
2022/01/26 10:26:19;;;;;;;34.67;18.80;;;5.50;99.90;;;;;;5014110;28;20258;-87
2022/01/26 10:28:56;;;;;;;32.72;18.10;;;5.50;99.90;;;;;;5014103;28;20187;-89
2022/01/26 10:31:27;;;;;;;30.10;18.88;;;5.50;99.90;;;;;;5015630;28;20615;-87
2022/01/26 10:33:57;;;;;;;33.38;18.20;;;5.50;99.90;;;;;;5010708;28;20177;-86
2022/01/26 10:36:24;;;;;;;30.58;18.15;;;5.60;99.90;;;;;;5016227;28;20205;-89
2022/01/26 10:39:10;;;;;;;32.95;18.95;;;5.60;99.90;;;;;;5014177;28;21370;-87
2022/01/26 10:41:37;;;;;;;33.13;18.92;;;5.60;99.90;;;;;;5030993;28;20255;-89
2022/01/26 10:44:03;;;;;;;33.30;18.02;;;5.60;99.90;;;;;;5009421;28;20225;-90
2022/01/26 10:46:38;;;;;;;30.05;17.67;;;5.60;99.90;;;;;;5014193;28;20215;-87
2022/01/26 10:49:09;;;;;;;32.08;18.10;;;5.60;99.90;;;;;;5012350;28;20183;-87
2022/01/26 10:51:53;;;;;;;32.97;19.10;;;5.60;99.90;;;;;;5013940;28;20203;-87
2022/01/26 10:54:24;;;;;;;23.50;15.88;;;5.50;99.90;;;;;;5011496;28;20399;-90
2022/01/26 10:56:51;;;;;;;35.30;18.73;;;5.50;99.90;;;;;;5020159;28;20194;-90
2022/01/26 10:59:17;;;;;;;37.15;19.40;;;5.40;99.90;;;;;;5024166;28;20238;-86
2022/01/26 11:01:43;;;;;;;35.10;19.67;;;5.40;99.90;;;;;;5022885;28;20167;-89
2022/01/26 11:04:10;;;;;;;32.63;18.87;;;5.40;99.90;;;;;;5020302;28;20218;-89
2022/01/26 11:06:37;;;;;;;31.42;19.17;;;5.30;99.90;;;;;;5015704;28;20477;-85
2022/01/26 11:09:10;;;;;;;35.40;20.73;;;5.30;99.90;;;;;;5033242;28;20223;-89
2022/01/26 11:11:39;;;;;;;40.20;21.73;;;5.30;99.90;;;;;;5011153;28;20249;-86
2022/01/26 11:14:13;;;;;;;34.80;18.45;;;5.30;99.90;;;;;;5021991;28;20187;-89
2022/01/26 11:16:51;;;;;;;40.33;23.02;;;5.30;99.90;;;;;;5015205;28;20199;-86
2022/01/26 11:19:17;;;;;;;42.25;25.58;;;5.20;99.90;;;;;;5017121;28;20547;-89
2022/01/26 11:21:43;;;;;;;60.80;30.17;;;5.20;99.90;;;;;;5017035;28;20532;-86
2022/01/26 11:24:11;;;;;;;42.65;23.38;;;5.30;99.90;;;;;;5014136;28;20548;-86
2022/01/26 11:26:38;;;;;;;40.92;24.38;;;5.30;99.90;;;;;;5011162;28;20208;-88
2022/01/26 11:29:18;;;;;;;50.65;25.70;;;5.30;99.90;;;;;;5006950;28;20181;-89
2022/01/26 11:31:44;;;;;;;50.20;28.05;;;5.30;99.90;;;;;;5012500;28;20194;-89
2022/01/26 11:34:11;;;;;;;44.92;27.25;;;5.30;99.90;;;;;;5012360;28;20198;-89
2022/01/26 11:36:41;;;;;;;37.55;21.25;;;5.40;99.90;;;;;;5014916;28;20202;-88
2022/01/26 11:45:09;;;;;;;36.78;19.73;;;5.40;99.90;;;;;;5002388;28;20223;-89
2022/01/26 11:47:38;;;;;;;27.63;17.50;;;5.40;99.90;;;;;;5014264;28;20230;-86
2022/01/26 11:50:08;;;;;;;29.75;17.90;;;5.50;99.90;;;;;;5006527;28;20207;-86
2022/01/26 11:52:40;;;;;;;30.63;18.40;;;5.50;99.90;;;;;;5010711;28;20261;-89
2022/01/26 11:55:26;;;;;;;29.50;17.27;;;5.50;99.90;;;;;;5005980;28;20203;-87
2022/01/26 11:57:54;;;;;;;29.92;17.25;;;5.50;99.90;;;;;;5013212;28;20187;-86
2022/01/26 12:00:45;;;;;;;33.03;18.63;;;5.50;99.90;;;;;;5021252;28;20596;-90
2022/01/26 12:03:31;;;;;;;29.20;16.38;;;5.50;99.90;;;;;;5014710;28;20187;-90
2022/01/26 12:05:58;;;;;;;29.58;17.80;;;5.60;99.90;;;;;;5014358;28;20206;-86
2022/01/26 12:08:28;;;;;;;30.88;16.65;;;5.50;99.90;;;;;;5016247;28;20233;-90
2022/01/26 12:10:54;;;;;;;29.60;16.98;;;5.50;99.90;;;;;;5009670;28;20203;-89
2022/01/26 12:13:28;;;;;;;29.17;17.35;;;5.50;99.90;;;;;;5008704;28;20228;-87
2022/01/26 12:15:57;;;;;;;30.55;16.33;;;5.50;99.90;;;;;;5019124;28;20217;-90
2022/01/26 12:35:45;;;;;;;29.55;18.08;;;5.50;99.90;;;;;;4916356;29;20389;-91
2022/01/26 12:38:21;;;;;;;30.13;16.92;;;5.50;99.90;;;;;;4979716;28;20226;-90
2022/01/26 12:43:47;;;;;;;28.85;16.90;;;5.50;99.90;;;;;;5012173;28;20179;-91
2022/01/26 12:46:25;;;;;;;28.98;16.92;;;5.50;99.90;;;;;;5012133;28;20254;-91
2022/01/26 12:49:00;;;;;;;32.88;17.10;;;5.60;99.90;;;;;;5013495;28;20179;-88
2022/01/26 12:51:28;;;;;;;34.75;17.98;;;5.60;99.90;;;;;;5010560;28;20197;-87
2022/01/26 12:53:56;;;;;;;28.25;17.55;;;5.60;99.90;;;;;;5009866;28;20179;-88
2022/01/26 12:56:26;;;;;;;29.85;16.42;;;5.60;99.90;;;;;;5010414;28;20336;-88
2022/01/26 12:58:59;;;;;;;27.38;15.85;;;5.70;99.90;;;;;;5013601;28;20186;-87
2022/01/26 13:01:25;;;;;;;31.23;16.30;;;5.70;99.90;;;;;;5005365;28;20203;-88
2022/01/26 13:03:59;;;;;;;33.72;16.73;;;5.70;99.90;;;;;;5006408;28;20648;-91
2022/01/26 13:06:28;;;;;;;33.72;17.63;;;5.70;99.90;;;;;;5014522;28;20661;-88
2022/01/26 13:08:59;;;;;;;27.85;16.42;;;5.70;99.90;;;;;;5007549;28;20586;-87
2022/01/26 13:11:33;;;;;;;29.67;16.55;;;5.70;99.90;;;;;;5008752;28;20684;-91
2022/01/26 13:14:19;;;;;;;29.55;17.27;;;5.70;99.90;;;;;;5008842;28;20174;-90
2022/01/26 13:17:14;;;;;;;31.08;16.10;;;5.70;99.90;;;;;;5015994;28;20313;-87
2022/01/26 13:20:40;;;;;;;23.77;16.60;;;5.70;99.90;;;;;;5005875;28;20231;-90
2022/01/26 13:31:01;;;;;;;26.13;16.30;;;5.70;99.90;;;;;;5009141;28;20797;-91
2022/01/26 13:41:28;;;;;;;28.00;16.90;;;5.70;99.90;;;;;;5011719;28;20206;-91
2022/01/26 13:49:22;;;;;;;30.23;16.85;;;5.70;99.90;;;;;;5006608;28;20226;-91
2022/01/26 13:54:47;;;;;;;31.75;16.48;;;5.70;99.90;;;;;;5010209;28;20214;-88
2022/01/26 13:57:41;;;;;;;27.90;15.02;;;5.70;99.90;;;;;;5013626;28;20245;-88
2022/01/26 14:00:02;;;;;;;27.70;15.77;;;5.80;99.90;;;;;;5013273;28;20210;-92
2022/01/26 14:02:32;;;;;;;31.38;17.02;;;5.80;99.90;;;;;;5009152;28;20619;-88
2022/01/26 14:04:58;;;;;;;26.65;15.48;;;5.80;99.90;;;;;;5005960;28;20230;-91
2022/01/26 14:07:24;;;;;;;28.53;15.50;;;5.80;99.90;;;;;;5012424;28;20306;-91
2022/01/26 14:09:49;;;;;;;31.40;17.20;;;5.80;99.90;;;;;;5010836;28;20231;-91
2022/01/26 14:12:20;;;;;;;30.10;17.00;;;5.80;99.90;;;;;;5011768;28;20657;-88
2022/01/26 14:14:51;;;;;;;33.53;16.23;;;5.80;99.90;;;;;;5025444;28;20199;-91
2022/01/26 14:17:27;;;;;;;29.33;16.15;;;5.70;99.90;;;;;;5010013;28;20572;-88
2022/01/26 14:20:08;;;;;;;27.42;15.98;;;5.80;99.90;;;;;;5008271;28;20306;-91
2022/01/26 14:23:13;;;;;;;28.92;15.23;;;5.70;99.90;;;;;;5011950;28;20664;-91
2022/01/26 14:25:28;;;;;;;26.98;15.60;;;5.70;99.90;;;;;;5006565;28;20582;-88
2022/01/26 14:27:58;;;;;;;33.85;15.52;;;5.80;99.90;;;;;;5006145;28;20219;-91
2022/01/26 15:53:03;;;;;;;33.08;18.00;;;5.40;99.90;;;;;;5016630;28;20286;-90
2022/01/26 15:58:22;;;;;;;60.83;29.08;;;5.40;99.90;;;;;;4996400;28;20175;-87
2022/01/26 16:52:31;;;;;;;32.22;19.92;;;5.20;99.90;;;;;;5014407;28;20548;-86
2022/01/26 16:52:44;;;;;;;112.38;51.03;;;5.10;99.90;;;;;;5034282;28;20168;-88
2022/01/26 17:25:33;;;;;;;35.65;20.38;;;4.90;99.90;;;;;;5012651;28;20238;-88
2022/01/26 17:46:47;;;;;;;32.15;19.13;;;4.90;99.90;;;;;;5014996;28;20735;-88
2022/01/26 18:33:01;;;;;;;26.70;15.52;;;4.80;99.90;;;;;;5013823;28;20656;-90
2022/01/26 18:51:42;;;;;;;36.50;20.00;;;4.80;99.90;;;;;;5018183;28;20691;-90
2022/01/26 18:54:10;;;;;;;32.88;18.98;;;4.70;99.90;;;;;;5017219;28;20183;-88
2022/01/26 18:56:36;;;;;;;30.77;17.80;;;4.70;99.90;;;;;;5017309;28;20199;-90
2022/01/26 18:59:05;;;;;;;31.27;18.42;;;4.70;99.90;;;;;;5016615;28;20178;-90
2022/01/26 19:01:32;;;;;;;28.02;16.42;;;4.80;99.90;;;;;;5023383;28;20692;-88
2022/01/26 19:03:58;;;;;;;30.35;17.08;;;4.70;99.90;;;;;;5020535;28;20659;-89
2022/01/26 19:06:24;;;;;;;27.87;17.73;;;4.70;99.90;;;;;;5016458;28;20219;-87
2022/01/26 19:08:49;;;;;;;28.03;18.10;;;4.70;99.90;;;;;;5016315;28;20226;-88
2022/01/26 19:11:16;;;;;;;28.53;18.13;;;4.70;99.90;;;;;;5016629;28;20237;-89
2022/01/26 19:13:45;;;;;;;34.88;18.92;;;4.70;99.90;;;;;;5017430;28;20262;-90
2022/01/26 19:16:23;;;;;;;31.38;16.88;;;4.60;99.90;;;;;;5016951;28;20212;-90
2022/01/26 19:18:53;;;;;;;31.58;16.45;;;4.60;99.90;;;;;;5016458;28;20202;-89
2022/01/26 19:24:08;;;;;;;30.08;17.17;;;4.60;99.90;;;;;;5017921;28;20179;-87
2022/01/26 19:26:39;;;;;;;27.90;17.27;;;4.50;99.90;;;;;;5016841;28;20229;-89
2022/01/26 19:29:21;;;;;;;31.80;16.67;;;4.50;99.90;;;;;;5016565;28;20167;-89